createdAt,value
2022-11-13T00:00:11.066Z,100904.17
2022-11-13T00:01:18.077Z,100903.14
2022-11-13T00:02:11.151Z,100900.52
2022-11-13T00:03:11.064Z,100899.27
2022-11-13T00:04:11.064Z,100899.86
2022-11-13T00:05:11.067Z,100901.96
2022-11-13T00:06:11.061Z,100896.81
2022-11-13T00:07:11.083Z,100896.73
2022-11-13T00:08:11.071Z,100893.61
2022-11-13T00:09:12.066Z,100890.04
2022-11-13T00:10:11.065Z,100889.27
2022-11-13T00:11:18.069Z,100890.99
2022-11-13T00:12:11.065Z,100890.86
2022-11-13T00:13:11.064Z,100893.09
2022-11-13T00:14:11.068Z,100892.80
2022-11-13T00:15:11.067Z,100892.06
2022-11-13T00:16:12.064Z,100889.95
2022-11-13T00:17:11.065Z,100892.30
2022-11-13T00:18:11.082Z,100891.25
2022-11-13T00:19:11.067Z,100889.75
2022-11-13T00:20:11.069Z,100890.98
2022-11-13T00:21:13.070Z,100889.68
2022-11-13T00:22:11.061Z,100892.14
2022-11-13T00:23:11.058Z,100888.70
2022-11-13T00:24:11.060Z,100889.41
2022-11-13T00:25:11.063Z,100887.29
2022-11-13T00:26:18.067Z,100883.57
2022-11-13T00:27:11.060Z,100885.43
2022-11-13T00:28:11.069Z,100884.48
2022-11-13T00:29:11.060Z,100887.73
2022-11-13T00:30:16.368Z,100887.62
2022-11-13T00:31:13.138Z,100888.62
2022-11-13T00:32:11.063Z,100885.21
2022-11-13T00:33:11.061Z,100887.62
2022-11-13T00:34:46.383Z,100879.38
2022-11-13T00:35:13.132Z,100885.29
2022-11-13T00:36:13.061Z,100882.74
2022-11-13T00:37:11.064Z,100878.63
2022-11-13T00:38:11.077Z,100879.89
2022-11-13T00:39:11.064Z,100879.10
2022-11-13T00:40:11.074Z,100878.72
2022-11-13T00:41:11.064Z,100874.23
2022-11-13T00:42:11.065Z,100876.39
2022-11-13T00:43:11.061Z,100877.15
2022-11-13T00:44:11.063Z,100876.48
2022-11-13T00:45:12.065Z,100874.28
2022-11-13T00:46:11.065Z,100877.50
2022-11-13T00:47:11.063Z,100870.26
2022-11-13T00:48:11.063Z,100867.46
2022-11-13T00:49:11.064Z,100866.12
2022-11-13T00:50:11.062Z,100867.18
2022-11-13T00:51:11.063Z,100868.20
2022-11-13T00:52:11.062Z,100864.53
2022-11-13T00:53:16.841Z,100867.81
2022-11-13T00:54:13.083Z,100869.86
2022-11-13T00:55:11.064Z,100871.51
2022-11-13T00:56:11.059Z,100866.64
2022-11-13T00:57:11.067Z,100866.12
2022-11-13T00:58:11.068Z,100865.59
2022-11-13T00:59:11.062Z,100864.02
2022-11-13T01:00:11.066Z,100863.42
2022-11-13T01:01:17.146Z,100862.43
2022-11-13T01:02:11.063Z,100860.24
2022-11-13T01:03:11.065Z,100860.99
2022-11-13T01:04:11.071Z,100857.76
2022-11-13T01:05:11.062Z,100857.58
2022-11-13T01:06:16.068Z,100854.78
2022-11-13T01:07:11.087Z,100855.22
2022-11-13T01:08:11.065Z,100854.04
2022-11-13T01:09:11.065Z,100856.32
2022-11-13T01:10:11.064Z,100854.94
2022-11-13T01:11:11.066Z,100855.17
2022-11-13T01:12:11.060Z,100857.17
2022-11-13T01:13:11.073Z,100858.33
2022-11-13T01:14:11.067Z,100860.07
2022-11-13T01:15:11.070Z,100860.08
2022-11-13T01:16:11.076Z,100859.74
2022-11-13T01:17:11.066Z,100860.12
2022-11-13T01:18:11.066Z,100859.64
2022-11-13T01:19:11.067Z,100857.77
2022-11-13T01:20:11.074Z,100862.10
2022-11-13T01:21:17.065Z,100860.30
2022-11-13T01:22:11.058Z,100860.94
2022-11-13T01:23:11.062Z,100861.43
2022-11-13T01:24:11.061Z,100861.39
2022-11-13T01:25:11.061Z,100860.07
2022-11-13T01:26:18.061Z,100855.79
2022-11-13T01:27:11.073Z,100853.25
2022-11-13T01:28:11.061Z,100857.07
2022-11-13T01:29:11.057Z,100854.07
2022-11-13T01:30:11.061Z,100850.71
2022-11-13T01:31:11.062Z,100850.63
2022-11-13T01:32:11.068Z,100851.48
2022-11-13T01:33:11.064Z,100848.12
2022-11-13T01:34:11.063Z,100849.96
2022-11-13T01:35:11.059Z,100846.99
2022-11-13T01:36:15.070Z,100849.29
2022-11-13T01:37:11.064Z,100842.50
2022-11-13T01:38:11.058Z,100843.68
2022-11-13T01:39:11.062Z,100839.86
2022-11-13T01:40:12.069Z,100842.88
2022-11-13T01:41:17.854Z,100842.64
2022-11-13T01:42:13.484Z,100840.16
2022-11-13T01:43:19.066Z,100843.64
2022-11-13T01:44:14.074Z,100839.87
2022-11-13T01:45:19.061Z,100841.34
2022-11-13T01:46:17.058Z,100841.47
2022-11-13T01:47:11.066Z,100841.85
2022-11-13T01:48:11.072Z,100835.36
2022-11-13T01:49:19.062Z,100834.65
2022-11-13T01:50:14.066Z,100834.75
2022-11-13T01:51:18.070Z,100830.09
2022-11-13T01:52:19.063Z,100831.84
2022-11-13T01:53:11.068Z,100830.75
2022-11-13T01:54:15.063Z,100826.10
2022-11-13T01:55:16.081Z,100829.75
2022-11-13T01:56:11.064Z,100828.44
2022-11-13T01:57:11.062Z,100826.64
2022-11-13T01:58:11.069Z,100827.46
2022-11-13T01:59:21.073Z,100828.31
2022-11-13T02:00:11.067Z,100827.20
2022-11-13T02:01:11.063Z,100824.39
2022-11-13T02:02:11.130Z,100825.04
2022-11-13T02:03:11.075Z,100825.56
2022-11-13T02:04:11.073Z,100822.23
2022-11-13T02:05:12.067Z,100824.70
2022-11-13T02:06:11.071Z,100823.13
2022-11-13T02:07:12.099Z,100821.51
2022-11-13T02:08:11.067Z,100819.54
2022-11-13T02:09:11.068Z,100819.14
2022-11-13T02:10:11.064Z,100819.14
2022-11-13T02:11:11.066Z,100817.28
2022-11-13T02:12:13.067Z,100818.71
2022-11-13T02:13:11.067Z,100817.09
2022-11-13T02:14:11.064Z,100815.34
2022-11-13T02:15:11.064Z,100814.32
2022-11-13T02:16:11.066Z,100813.89
2022-11-13T02:17:12.063Z,100813.25
2022-11-13T02:18:11.073Z,100812.92
2022-11-13T02:19:17.077Z,100813.59
2022-11-13T02:20:11.066Z,100806.38
2022-11-13T02:21:21.056Z,100807.56
2022-11-13T02:22:20.060Z,100804.29
2022-11-13T02:23:17.067Z,100804.38
2022-11-13T02:24:19.062Z,100802.79
2022-11-13T02:25:11.062Z,100801.50
2022-11-13T02:26:11.057Z,100804.04
2022-11-13T02:27:21.067Z,100804.83
2022-11-13T02:28:11.070Z,100807.26
2022-11-13T02:29:11.062Z,100806.32
2022-11-13T02:30:22.026Z,100809.77
2022-11-13T02:31:13.131Z,100810.68
2022-11-13T02:32:11.071Z,100807.25
2022-11-13T02:33:19.060Z,100812.09
2022-11-13T02:34:11.060Z,100812.84
2022-11-13T02:35:11.063Z,100810.66
2022-11-13T02:36:11.065Z,100809.64
2022-11-13T02:37:11.062Z,100806.06
2022-11-13T02:38:11.062Z,100806.30
2022-11-13T02:39:11.069Z,100803.05
2022-11-13T02:40:11.061Z,100802.32
2022-11-13T02:41:11.065Z,100803.17
2022-11-13T02:42:11.080Z,100801.18
2022-11-13T02:43:11.062Z,100801.40
2022-11-13T02:44:11.058Z,100799.80
2022-11-13T02:45:11.062Z,100797.96
2022-11-13T02:46:11.067Z,100796.66
2022-11-13T02:47:11.061Z,100794.30
2022-11-13T02:48:11.062Z,100795.96
2022-11-13T02:49:11.067Z,100795.03
2022-11-13T02:50:11.061Z,100794.12
2022-11-13T02:51:11.063Z,100793.35
2022-11-13T02:52:11.121Z,100790.00
2022-11-13T02:53:11.068Z,100789.71
2022-11-13T02:54:16.536Z,100788.08
2022-11-13T02:55:13.111Z,100787.78
2022-11-13T02:56:11.066Z,100787.06
2022-11-13T02:57:11.062Z,100789.52
2022-11-13T02:58:11.065Z,100784.43
2022-11-13T02:59:11.065Z,100785.12
2022-11-13T03:00:14.002Z,100783.59
2022-11-13T03:01:11.119Z,100783.95
2022-11-13T03:02:11.077Z,100780.60
2022-11-13T03:03:11.067Z,100780.52
2022-11-13T03:04:11.059Z,100776.87
2022-11-13T03:05:12.991Z,100780.43
2022-11-13T03:06:11.067Z,100775.70
2022-11-13T03:07:11.095Z,100776.74
2022-11-13T03:08:11.071Z,100778.62
2022-11-13T03:09:11.066Z,100778.77
2022-11-13T03:10:11.071Z,100779.02
2022-11-13T03:11:11.075Z,100779.17
2022-11-13T03:12:11.075Z,100776.34
2022-11-13T03:13:11.064Z,100778.14
2022-11-13T03:14:11.069Z,100776.78
2022-11-13T03:15:11.067Z,100772.50
2022-11-13T03:16:17.069Z,100772.20
2022-11-13T03:17:11.064Z,100768.33
2022-11-13T03:18:11.068Z,100766.83
2022-11-13T03:19:11.072Z,100769.49
2022-11-13T03:20:11.070Z,100769.74
2022-11-13T03:21:12.065Z,100770.59
2022-11-13T03:22:11.064Z,100771.33
2022-11-13T03:23:11.061Z,100772.29
2022-11-13T03:24:11.060Z,100773.02
2022-11-13T03:25:11.261Z,100768.15
2022-11-13T03:26:11.060Z,100770.74
2022-11-13T03:27:11.059Z,100770.28
2022-11-13T03:28:11.061Z,100768.23
2022-11-13T03:29:11.061Z,100769.50
2022-11-13T03:30:11.060Z,100767.34
2022-11-13T03:31:11.063Z,100768.90
2022-11-13T03:32:11.071Z,100771.82
2022-11-13T03:33:11.060Z,100765.40
2022-11-13T03:34:11.058Z,100765.07
2022-11-13T03:35:11.064Z,100760.73
2022-11-13T03:36:11.063Z,100762.02
2022-11-13T03:37:11.058Z,100762.73
2022-11-13T03:38:11.062Z,100762.11
2022-11-13T03:39:11.062Z,100761.47
2022-11-13T03:40:11.061Z,100757.61
2022-11-13T03:41:11.064Z,100755.20
2022-11-13T03:42:11.069Z,100753.12
2022-11-13T03:43:11.064Z,100747.66
2022-11-13T03:44:11.061Z,100748.39
2022-11-13T03:45:11.065Z,100743.20
2022-11-13T03:46:11.067Z,100739.57
2022-11-13T03:47:11.058Z,100737.82
2022-11-13T03:48:11.070Z,100735.07
2022-11-13T03:49:11.063Z,100734.34
2022-11-13T03:50:11.061Z,100734.82
2022-11-13T03:51:11.064Z,100736.62
2022-11-13T03:52:11.063Z,100737.46
2022-11-13T03:53:11.062Z,100732.91
2022-11-13T03:54:11.068Z,100732.36
2022-11-13T03:55:11.075Z,100733.49
2022-11-13T03:56:11.061Z,100736.09
2022-11-13T03:57:11.065Z,100736.22
2022-11-13T03:58:11.072Z,100734.22
2022-11-13T03:59:11.064Z,100734.07
2022-11-13T04:00:11.060Z,100737.11
2022-11-13T04:01:11.066Z,100730.57
2022-11-13T04:02:11.066Z,100731.03
2022-11-13T04:03:11.064Z,100734.49
2022-11-13T04:04:11.066Z,100732.04
2022-11-13T04:05:11.063Z,100732.81
2022-11-13T04:06:11.064Z,100731.24
2022-11-13T04:07:11.106Z,100731.22
2022-11-13T04:08:11.066Z,100735.23
2022-11-13T04:09:11.069Z,100732.22
2022-11-13T04:10:11.064Z,100736.24
2022-11-13T04:11:11.068Z,100733.33
2022-11-13T04:12:11.065Z,100734.00
2022-11-13T04:13:11.067Z,100731.93
2022-11-13T04:14:11.073Z,100732.07
2022-11-13T04:15:11.066Z,100732.67
2022-11-13T04:16:11.064Z,100731.66
2022-11-13T04:17:11.064Z,100730.96
2022-11-13T04:18:11.067Z,100729.64
2022-11-13T04:19:11.070Z,100731.23
2022-11-13T04:20:11.065Z,100731.06
2022-11-13T04:21:11.060Z,100735.14
2022-11-13T04:22:11.057Z,100733.84
2022-11-13T04:23:15.058Z,100737.20
2022-11-13T04:24:11.065Z,100736.48
2022-11-13T04:25:11.064Z,100733.21
2022-11-13T04:26:11.089Z,100732.62
2022-11-13T04:27:11.068Z,100730.02
2022-11-13T04:28:11.060Z,100732.51
2022-11-13T04:29:11.056Z,100731.42
2022-11-13T04:30:11.062Z,100732.97
2022-11-13T04:31:11.059Z,100731.71
2022-11-13T04:32:11.060Z,100733.27
2022-11-13T04:33:11.060Z,100728.55
2022-11-13T04:34:11.062Z,100728.07
2022-11-13T04:35:11.059Z,100728.38
2022-11-13T04:36:11.061Z,100725.60
2022-11-13T04:37:11.069Z,100725.86
2022-11-13T04:38:11.063Z,100721.66
2022-11-13T04:39:11.066Z,100721.84
2022-11-13T04:40:11.063Z,100718.05
2022-11-13T04:41:15.063Z,100719.11
2022-11-13T04:42:15.060Z,100724.86
2022-11-13T04:43:11.065Z,100724.96
2022-11-13T04:44:11.069Z,100725.67
2022-11-13T04:45:11.062Z,100724.75
2022-11-13T04:46:11.057Z,100726.29
2022-11-13T04:47:11.064Z,100723.98
2022-11-13T04:48:11.066Z,100724.38
2022-11-13T04:49:11.060Z,100724.48
2022-11-13T04:50:11.062Z,100723.66
2022-11-13T04:51:11.074Z,100722.80
2022-11-13T04:52:11.061Z,100721.45
2022-11-13T04:53:11.064Z,100721.43
2022-11-13T04:54:11.069Z,100718.70
2022-11-13T04:55:11.063Z,100724.20
2022-11-13T04:56:11.067Z,100722.12
2022-11-13T04:57:11.070Z,100717.82
2022-11-13T04:58:11.067Z,100718.30
2022-11-13T04:59:11.062Z,100720.82
2022-11-13T05:00:11.063Z,100714.48
2022-11-13T05:01:11.069Z,100715.04
2022-11-13T05:02:11.061Z,100711.84
2022-11-13T05:03:11.063Z,100709.19
2022-11-13T05:04:14.064Z,100708.32
2022-11-13T05:05:11.061Z,100703.44
2022-11-13T05:06:11.065Z,100703.85
2022-11-13T05:07:11.115Z,100703.31
2022-11-13T05:08:11.065Z,100700.31
2022-11-13T05:09:11.064Z,100699.34
2022-11-13T05:10:11.066Z,100700.83
2022-11-13T05:11:11.064Z,100701.35
2022-11-13T05:12:11.063Z,100696.80
2022-11-13T05:13:11.064Z,100696.25
2022-11-13T05:14:12.067Z,100693.32
2022-11-13T05:15:11.062Z,100693.50
2022-11-13T05:16:11.063Z,100695.21
2022-11-13T05:17:12.065Z,100695.16
2022-11-13T05:18:11.063Z,100696.69
2022-11-13T05:19:11.063Z,100698.00
2022-11-13T05:20:11.067Z,100697.26
2022-11-13T05:21:11.058Z,100696.73
2022-11-13T05:22:11.062Z,100695.82
2022-11-13T05:23:11.065Z,100696.44
2022-11-13T05:24:11.059Z,100695.89
2022-11-13T05:25:11.062Z,100696.36
2022-11-13T05:26:11.062Z,100693.99
2022-11-13T05:27:16.860Z,100696.57
2022-11-13T05:28:13.120Z,100693.45
2022-11-13T05:29:11.064Z,100695.66
2022-11-13T05:30:11.088Z,100697.56
2022-11-13T05:31:11.058Z,100696.90
2022-11-13T05:32:11.063Z,100696.63
2022-11-13T05:33:11.066Z,100696.02
2022-11-13T05:34:11.058Z,100696.09
2022-11-13T05:35:11.064Z,100694.05
2022-11-13T05:36:13.063Z,100696.02
2022-11-13T05:37:11.062Z,100693.52
2022-11-13T05:38:11.059Z,100694.39
2022-11-13T05:39:11.060Z,100692.00
2022-11-13T05:40:11.061Z,100695.55
2022-11-13T05:41:15.058Z,100694.75
2022-11-13T05:42:11.057Z,100694.14
2022-11-13T05:43:11.063Z,100694.25
2022-11-13T05:44:11.062Z,100701.23
2022-11-13T05:45:11.060Z,100699.12
2022-11-13T05:46:19.063Z,100703.90
2022-11-13T05:47:11.068Z,100703.08
2022-11-13T05:48:11.065Z,100706.54
2022-11-13T05:49:11.063Z,100703.79
2022-11-13T05:50:11.068Z,100700.67
2022-11-13T05:51:14.063Z,100698.70
2022-11-13T05:52:11.058Z,100699.14
2022-11-13T05:53:11.063Z,100700.70
2022-11-13T05:54:11.063Z,100702.01
2022-11-13T05:55:11.062Z,100703.06
2022-11-13T05:56:13.061Z,100701.98
2022-11-13T05:57:11.070Z,100701.12
2022-11-13T05:58:11.061Z,100699.00
2022-11-13T05:59:11.065Z,100693.97
2022-11-13T06:00:11.076Z,100690.81
2022-11-13T06:01:18.061Z,100688.49
2022-11-13T06:02:11.100Z,100685.03
2022-11-13T06:03:11.069Z,100686.69
2022-11-13T06:04:11.068Z,100683.13
2022-11-13T06:05:11.059Z,100687.27
2022-11-13T06:06:11.066Z,100688.56
2022-11-13T06:07:11.094Z,100684.95
2022-11-13T06:08:11.063Z,100683.53
2022-11-13T06:09:11.067Z,100679.92
2022-11-13T06:10:11.073Z,100679.94
2022-11-13T06:11:11.062Z,100677.07
2022-11-13T06:12:11.064Z,100678.89
2022-11-13T06:13:11.065Z,100677.41
2022-11-13T06:14:11.062Z,100678.91
2022-11-13T06:15:11.066Z,100679.48
2022-11-13T06:16:14.075Z,100680.52
2022-11-13T06:17:11.065Z,100681.22
2022-11-13T06:18:11.061Z,100678.44
2022-11-13T06:19:11.076Z,100680.99
2022-11-13T06:20:11.067Z,100679.46
2022-11-13T06:21:11.057Z,100683.65
2022-11-13T06:22:11.057Z,100682.16
2022-11-13T06:23:11.059Z,100683.88
2022-11-13T06:24:11.061Z,100680.40
2022-11-13T06:25:11.059Z,100677.46
2022-11-13T06:26:14.067Z,100674.15
2022-11-13T06:27:11.062Z,100668.81
2022-11-13T06:28:11.057Z,100667.37
2022-11-13T06:29:11.066Z,100669.37
2022-11-13T06:30:11.063Z,100667.37
2022-11-13T06:31:11.058Z,100665.55
2022-11-13T06:32:11.062Z,100663.41
2022-11-13T06:33:11.060Z,100662.28
2022-11-13T06:34:11.059Z,100658.15
2022-11-13T06:35:11.058Z,100660.73
2022-11-13T06:36:12.061Z,100660.34
2022-11-13T06:37:11.057Z,100664.35
2022-11-13T06:38:11.063Z,100665.28
2022-11-13T06:39:11.173Z,100661.66
2022-11-13T06:40:11.058Z,100659.02
2022-11-13T06:41:11.063Z,100661.88
2022-11-13T06:42:11.062Z,100658.20
2022-11-13T06:43:11.065Z,100662.76
2022-11-13T06:44:11.064Z,100666.31
2022-11-13T06:45:11.064Z,100668.14
2022-11-13T06:46:16.063Z,100666.16
2022-11-13T06:47:11.059Z,100667.03
2022-11-13T06:48:11.062Z,100667.71
2022-11-13T06:49:11.072Z,100661.84
2022-11-13T06:50:11.060Z,100659.50
2022-11-13T06:51:16.077Z,100657.52
2022-11-13T06:52:11.065Z,100652.04
2022-11-13T06:53:11.064Z,100654.81
2022-11-13T06:54:11.062Z,100657.16
2022-11-13T06:55:11.064Z,100657.29
2022-11-13T06:56:11.063Z,100657.87
2022-11-13T06:57:11.063Z,100654.89
2022-11-13T06:58:11.064Z,100650.74
2022-11-13T06:59:11.065Z,100653.99
2022-11-13T07:00:11.073Z,100651.32
2022-11-13T07:01:17.068Z,100649.77
2022-11-13T07:02:11.071Z,100645.31
2022-11-13T07:03:15.063Z,100646.98
2022-11-13T07:04:13.064Z,100649.11
2022-11-13T07:05:11.065Z,100648.36
2022-11-13T07:06:11.068Z,100647.06
2022-11-13T07:07:11.113Z,100650.29
2022-11-13T07:08:11.067Z,100646.79
2022-11-13T07:09:11.072Z,100649.73
2022-11-13T07:10:11.066Z,100647.86
2022-11-13T07:11:11.066Z,100649.58
2022-11-13T07:12:11.069Z,100647.73
2022-11-13T07:13:11.064Z,100642.30
2022-11-13T07:14:12.064Z,100642.59
2022-11-13T07:15:11.065Z,100645.58
2022-11-13T07:16:17.081Z,100648.03
2022-11-13T07:17:13.127Z,100647.12
2022-11-13T07:18:11.068Z,100649.77
2022-11-13T07:19:11.074Z,100649.56
2022-11-13T07:20:11.064Z,100652.47
2022-11-13T07:21:12.060Z,100653.36
2022-11-13T07:22:11.061Z,100654.30
2022-11-13T07:23:11.067Z,100651.56
2022-11-13T07:24:16.565Z,100653.40
2022-11-13T07:25:13.200Z,100657.67
2022-11-13T07:26:11.069Z,100657.07
2022-11-13T07:27:11.057Z,100654.00
2022-11-13T07:28:11.063Z,100652.65
2022-11-13T07:29:11.064Z,100655.35
2022-11-13T07:30:11.063Z,100657.94
2022-11-13T07:31:12.066Z,100661.17
2022-11-13T07:32:11.060Z,100659.57
2022-11-13T07:33:11.066Z,100662.59
2022-11-13T07:34:11.059Z,100661.18
2022-11-13T07:35:11.061Z,100660.91
2022-11-13T07:36:11.070Z,100665.59
2022-11-13T07:37:13.059Z,100665.12
2022-11-13T07:38:11.065Z,100665.34
2022-11-13T07:39:11.063Z,100665.94
2022-11-13T07:40:11.061Z,100666.60
2022-11-13T07:41:11.057Z,100667.18
2022-11-13T07:42:11.060Z,100667.31
2022-11-13T07:43:11.063Z,100673.52
2022-11-13T07:44:11.202Z,100673.52
2022-11-13T07:45:11.065Z,100670.26
2022-11-13T07:46:11.069Z,100671.79
2022-11-13T07:47:11.061Z,100673.80
2022-11-13T07:48:11.061Z,100674.74
2022-11-13T07:49:11.070Z,100671.09
2022-11-13T07:50:11.223Z,100667.43
2022-11-13T07:51:11.059Z,100666.52
2022-11-13T07:52:11.069Z,100669.03
2022-11-13T07:53:11.064Z,100665.66
2022-11-13T07:54:11.064Z,100668.34
2022-11-13T07:55:11.066Z,100665.52
2022-11-13T07:56:11.065Z,100665.80
2022-11-13T07:57:11.061Z,100663.79
2022-11-13T07:58:11.071Z,100662.16
2022-11-13T07:59:11.073Z,100663.63
2022-11-13T08:00:11.065Z,100660.99
2022-11-13T08:01:11.086Z,100660.82
2022-11-13T08:02:15.066Z,100665.10
2022-11-13T08:03:15.067Z,100658.53
2022-11-13T08:04:11.065Z,100660.26
2022-11-13T08:05:11.060Z,100659.07
2022-11-13T08:06:11.064Z,100662.76
2022-11-13T08:07:11.093Z,100661.92
2022-11-13T08:08:13.067Z,100660.04
2022-11-13T08:09:11.067Z,100660.87
2022-11-13T08:10:11.066Z,100659.50
2022-11-13T08:11:11.065Z,100658.14
2022-11-13T08:12:11.065Z,100659.40
2022-11-13T08:13:11.094Z,100661.77
2022-11-13T08:14:11.065Z,100663.07
2022-11-13T08:15:13.531Z,100662.54
2022-11-13T08:16:11.073Z,100659.35
2022-11-13T08:17:11.063Z,100659.75
2022-11-13T08:18:11.075Z,100659.86
2022-11-13T08:19:11.076Z,100655.16
2022-11-13T08:20:11.067Z,100655.23
2022-11-13T08:21:14.882Z,100656.89
2022-11-13T08:22:11.063Z,100659.87
2022-11-13T08:23:11.062Z,100656.48
2022-11-13T08:24:11.056Z,100656.20
2022-11-13T08:25:11.062Z,100656.14
2022-11-13T08:26:11.061Z,100655.41
2022-11-13T08:27:11.060Z,100653.37
2022-11-13T08:28:13.131Z,100653.20
2022-11-13T08:29:11.061Z,100653.17
2022-11-13T08:30:11.061Z,100653.68
2022-11-13T08:31:14.060Z,100652.37
2022-11-13T08:32:11.069Z,100653.36
2022-11-13T08:33:11.063Z,100652.20
2022-11-13T08:34:11.064Z,100651.50
2022-11-13T08:35:13.722Z,100652.60
2022-11-13T08:36:13.880Z,100648.43
2022-11-13T08:37:11.063Z,100647.83
2022-11-13T08:38:11.062Z,100649.65
2022-11-13T08:39:11.070Z,100653.25
2022-11-13T08:40:11.068Z,100646.38
2022-11-13T08:41:11.060Z,100649.68
2022-11-13T08:42:11.065Z,100646.71
2022-11-13T08:43:11.063Z,100646.01
2022-11-13T08:44:11.058Z,100644.27
2022-11-13T08:45:11.069Z,100650.39
2022-11-13T08:46:11.064Z,100644.36
2022-11-13T08:47:11.061Z,100644.77
2022-11-13T08:48:11.062Z,100645.50
2022-11-13T08:49:11.065Z,100644.45
2022-11-13T08:50:11.063Z,100645.13
2022-11-13T08:51:11.063Z,100646.85
2022-11-13T08:52:11.069Z,100640.71
2022-11-13T08:53:11.062Z,100640.52
2022-11-13T08:54:11.065Z,100641.17
2022-11-13T08:55:11.072Z,100639.97
2022-11-13T08:56:11.065Z,100637.49
2022-11-13T08:57:11.069Z,100642.80
2022-11-13T08:58:11.067Z,100640.88
2022-11-13T08:59:11.069Z,100638.87
2022-11-13T09:00:11.063Z,100641.66
2022-11-13T09:01:11.087Z,100638.95
2022-11-13T09:02:14.069Z,100637.15
2022-11-13T09:03:11.064Z,100641.25
2022-11-13T09:04:11.128Z,100636.84
2022-11-13T09:05:11.072Z,100638.42
2022-11-13T09:06:11.063Z,100634.66
2022-11-13T09:07:11.096Z,100635.64
2022-11-13T09:08:11.076Z,100632.38
2022-11-13T09:09:11.066Z,100632.94
2022-11-13T09:10:11.067Z,100632.12
2022-11-13T09:11:11.072Z,100633.76
2022-11-13T09:12:11.067Z,100633.77
2022-11-13T09:13:11.063Z,100632.05
2022-11-13T09:14:11.069Z,100635.79
2022-11-13T09:15:11.067Z,100633.76
2022-11-13T09:16:11.065Z,100633.05
2022-11-13T09:17:11.067Z,100629.14
2022-11-13T09:18:11.067Z,100633.16
2022-11-13T09:19:11.064Z,100627.11
2022-11-13T09:20:13.762Z,100627.01
2022-11-13T09:21:11.060Z,100621.89
2022-11-13T09:22:11.059Z,100618.41
2022-11-13T09:23:11.061Z,100615.49
2022-11-13T09:24:11.076Z,100617.51
2022-11-13T09:25:11.064Z,100615.09
2022-11-13T09:26:11.064Z,100615.63
2022-11-13T09:27:11.069Z,100620.13
2022-11-13T09:28:11.063Z,100621.39
2022-11-13T09:29:11.061Z,100615.02
2022-11-13T09:30:11.061Z,100613.11
2022-11-13T09:31:11.063Z,100611.25
2022-11-13T09:32:11.059Z,100610.75
2022-11-13T09:33:12.065Z,100608.65
2022-11-13T09:34:11.069Z,100608.09
2022-11-13T09:35:11.064Z,100606.45
2022-11-13T09:36:14.066Z,100608.68
2022-11-13T09:37:11.070Z,100610.66
2022-11-13T09:38:11.789Z,100604.14
2022-11-13T09:39:11.064Z,100610.30
2022-11-13T09:40:17.071Z,100608.20
2022-11-13T09:41:13.062Z,100610.87
2022-11-13T09:42:17.063Z,100613.98
2022-11-13T09:43:19.063Z,100616.03
2022-11-13T09:44:19.070Z,100610.35
2022-11-13T09:45:14.071Z,100612.66
2022-11-13T09:46:20.062Z,100616.58
2022-11-13T09:47:21.062Z,100614.05
2022-11-13T09:48:22.063Z,100614.93
2022-11-13T09:49:17.063Z,100615.27
2022-11-13T09:50:22.075Z,100612.32
2022-11-13T09:51:16.068Z,100611.90
2022-11-13T09:52:19.063Z,100612.16
2022-11-13T09:53:12.060Z,100609.10
2022-11-13T09:54:15.069Z,100608.17
2022-11-13T09:55:16.064Z,100606.11
2022-11-13T09:56:19.063Z,100605.02
2022-11-13T09:57:24.608Z,100606.06
2022-11-13T09:58:24.434Z,100604.22
2022-11-13T09:59:19.067Z,100605.88
2022-11-13T10:00:15.073Z,100606.37
2022-11-13T10:01:18.159Z,100607.58
2022-11-13T10:02:22.063Z,100604.06
2022-11-13T10:03:39.040Z,100604.02
2022-11-13T10:04:16.072Z,100607.86
2022-11-13T10:05:22.079Z,100610.23
2022-11-13T10:06:19.066Z,100611.67
2022-11-13T10:07:19.082Z,100612.87
2022-11-13T10:08:20.064Z,100614.64
2022-11-13T10:09:19.066Z,100607.89
2022-11-13T10:10:19.075Z,100608.54
2022-11-13T10:11:22.067Z,100608.49
2022-11-13T10:12:11.068Z,100607.29
2022-11-13T10:13:15.062Z,100605.92
2022-11-13T10:14:19.071Z,100606.79
2022-11-13T10:15:11.075Z,100607.94
2022-11-13T10:16:22.064Z,100610.59
2022-11-13T10:17:21.065Z,100609.27
2022-11-13T10:18:20.070Z,100611.09
2022-11-13T10:19:22.069Z,100616.57
2022-11-13T10:20:21.076Z,100615.51
2022-11-13T10:21:19.063Z,100615.62
2022-11-13T10:22:32.336Z,100613.60
2022-11-13T10:23:22.080Z,100613.38
2022-11-13T10:24:21.058Z,100615.41
2022-11-13T10:25:21.060Z,100614.54
2022-11-13T10:26:15.061Z,100615.74
2022-11-13T10:27:11.069Z,100615.97
2022-11-13T10:28:48.330Z,100610.98
2022-11-13T10:29:18.162Z,100613.11
2022-11-13T10:30:17.074Z,100614.10
2022-11-13T10:31:13.071Z,100612.89
2022-11-13T10:32:22.059Z,100610.76
2022-11-13T10:33:15.059Z,100612.23
2022-11-13T10:34:11.063Z,100616.69
2022-11-13T10:35:19.075Z,100615.86
2022-11-13T10:36:19.063Z,100614.11
2022-11-13T10:37:22.059Z,100614.71
2022-11-13T10:38:17.058Z,100613.60
2022-11-13T10:39:11.062Z,100618.72
2022-11-13T10:40:11.071Z,100616.91
2022-11-13T10:41:16.061Z,100617.45
2022-11-13T10:42:19.062Z,100615.36
2022-11-13T10:43:19.090Z,100610.59
2022-11-13T10:44:19.064Z,100610.75
2022-11-13T10:45:15.062Z,100611.53
2022-11-13T10:46:18.059Z,100608.73
2022-11-13T10:47:31.221Z,100609.43
2022-11-13T10:48:21.172Z,100607.03
2022-11-13T10:49:17.066Z,100604.77
2022-11-13T10:50:19.061Z,100600.45
2022-11-13T10:51:19.062Z,100598.35
2022-11-13T10:52:19.065Z,100596.43
2022-11-13T10:53:15.066Z,100598.30
2022-11-13T10:54:19.065Z,100599.11
2022-11-13T10:55:21.065Z,100602.52
2022-11-13T10:56:19.064Z,100603.62
2022-11-13T10:57:19.067Z,100607.95
2022-11-13T10:58:18.066Z,100606.93
2022-11-13T10:59:17.066Z,100607.59
2022-11-13T11:00:19.063Z,100604.25
2022-11-13T11:01:15.173Z,100601.39
2022-11-13T11:02:18.071Z,100602.49
2022-11-13T11:03:14.073Z,100596.82
2022-11-13T11:04:19.067Z,100593.64
2022-11-13T11:05:19.064Z,100595.48
2022-11-13T11:06:11.067Z,100598.18
2022-11-13T11:07:21.079Z,100598.85
2022-11-13T11:08:11.219Z,100597.65
2022-11-13T11:09:19.063Z,100595.51
2022-11-13T11:10:19.067Z,100597.70
2022-11-13T11:11:18.078Z,100597.70
2022-11-13T11:12:16.065Z,100594.01
2022-11-13T11:13:18.065Z,100591.95
2022-11-13T11:14:22.068Z,100581.02
2022-11-13T11:15:25.066Z,100579.37
2022-11-13T11:16:12.070Z,100565.05
2022-11-13T11:17:11.067Z,100566.71
2022-11-13T11:18:22.105Z,100559.30
2022-11-13T11:19:12.068Z,100555.61
2022-11-13T11:20:19.077Z,100555.56
2022-11-13T11:21:16.070Z,100553.60
2022-11-13T11:22:19.060Z,100555.62
2022-11-13T11:23:19.061Z,100554.14
2022-11-13T11:24:16.063Z,100549.59